Time;durP1;ratioP1;P1;durP2;ratioP2;P2;SDS_P1;SDS_P2;PMS_P1;PMS_P2;Temp;Humidity;BMP_temperature;BMP_pressure;BME280_temperature;BME280_humidity;BME280_pressure;Samples;Min_cycle;Max_cycle;Signal;HPM_P1;HPM_P2
2024/01/27 00:01:33;;;;;;;13.23;6.60;;;;;;;2.67;96.87;101071.50;5032129;28;20104;-73
2024/01/27 00:03:58;;;;;;;13.88;6.45;;;;;;;2.73;96.60;101079.66;5032325;28;20048;-70
2024/01/27 00:06:24;;;;;;;8.63;4.78;;;;;;;2.70;96.26;101086.16;5031726;28;20033;-74
2024/01/27 00:08:50;;;;;;;9.32;4.68;;;;;;;2.77;95.96;101085.88;5031916;28;20128;-69
2024/01/27 00:11:15;;;;;;;7.82;3.97;;;;;;;2.38;95.23;101008.06;5030488;28;20571;-71
2024/01/27 00:13:41;;;;;;;9.90;4.18;;;;;;;2.66;95.19;101068.84;5031623;28;20095;-73
2024/01/27 00:16:07;;;;;;;11.20;4.60;;;;;;;2.77;94.87;101090.06;5032296;28;20116;-70
2024/01/27 00:18:32;;;;;;;12.20;5.15;;;;;;;2.68;95.38;101080.03;5045818;28;20041;-72
2024/01/27 00:20:58;;;;;;;9.88;4.45;;;;;;;2.62;95.43;101085.56;5031770;28;20036;-70
2024/01/27 00:23:23;;;;;;;11.95;5.60;;;;;;;2.71;95.48;101110.91;5031177;28;20028;-71
2024/01/27 00:25:49;;;;;;;9.57;5.00;;;;;;;2.64;95.50;101113.72;5031527;28;20537;-69
2024/01/27 00:28:14;;;;;;;8.98;4.68;;;;;;;2.52;96.32;101106.00;5031384;28;20035;-70
2024/01/27 00:30:40;;;;;;;9.93;5.32;;;;;;;2.46;97.18;101100.41;5031526;28;20036;-69
2024/01/27 00:33:06;;;;;;;11.05;5.43;;;;;;;2.25;97.04;101069.91;5029537;28;20071;-73
2024/01/27 00:35:31;;;;;;;9.02;5.25;;;;;;;2.39;97.94;101094.84;5031938;28;20454;-69
2024/01/27 00:37:57;;;;;;;9.27;4.57;;;;;;;2.41;97.68;101106.03;5028731;28;20063;-69
2024/01/27 00:40:22;;;;;;;8.50;5.00;;;;;;;2.31;97.70;101092.44;5032063;28;20091;-68
2024/01/27 00:42:48;;;;;;;11.73;5.03;;;;;;;2.34;97.97;101085.91;5031190;28;20033;-70
2024/01/27 00:45:14;;;;;;;10.70;4.97;;;;;;;2.14;98.45;101071.56;5031406;28;20033;-69
2024/01/27 00:47:39;;;;;;;7.70;4.32;;;;;;;1.68;98.89;101011.84;5030866;28;20175;-69
2024/01/27 00:50:08;;;;;;;11.32;4.18;;;;;;;2.02;99.14;101070.59;5031339;28;20495;-69
2024/01/27 00:52:34;;;;;;;8.13;4.00;;;;;;;2.30;98.91;101096.63;5030904;28;20029;-71
2024/01/27 00:55:00;;;;;;;7.80;3.72;;;;;;;2.34;98.01;101101.19;5031236;28;20057;-68
2024/01/27 00:57:25;;;;;;;8.50;3.97;;;;;;;2.26;97.73;101082.75;5029216;28;20456;-69
2024/01/27 00:59:51;;;;;;;14.60;6.47;;;;;;;2.30;97.81;101083.00;5031170;28;20121;-69
2024/01/27 01:02:16;;;;;;;10.55;4.78;;;;;;;2.33;97.95;101103.63;5030396;28;20038;-69
2024/01/27 01:04:42;;;;;;;9.20;5.00;;;;;;;1.99;97.49;101019.41;5030469;28;20030;-70
2024/01/27 01:07:08;;;;;;;12.77;4.47;;;;;;;2.36;97.44;101094.56;5031079;28;20037;-72
2024/01/27 01:09:33;;;;;;;11.10;5.05;;;;;;;2.07;97.54;101064.22;5030344;28;20040;-69
2024/01/27 01:11:59;;;;;;;10.57;4.30;;;;;;;1.82;98.43;101030.78;5028180;28;20049;-69
2024/01/27 01:14:25;;;;;;;12.07;4.35;;;;;;;2.10;99.04;101080.63;5030142;28;20035;-70
2024/01/27 01:16:50;;;;;;;8.55;4.70;;;;;;;1.90;99.63;101076.47;5030430;28;20025;-68
2024/01/27 01:19:16;;;;;;;9.10;4.05;;;;;;;2.03;99.83;101070.72;5029122;28;20072;-69
2024/01/27 01:21:41;;;;;;;8.05;4.18;;;;;;;1.92;99.51;101044.38;5029595;28;20133;-71
2024/01/27 01:24:07;;;;;;;6.97;3.88;;;;;;;1.78;99.61;101020.38;5030271;28;20071;-69
2024/01/27 01:26:33;;;;;;;8.57;3.78;;;;;;;1.75;98.71;101054.88;5030175;28;20038;-71
2024/01/27 01:28:58;;;;;;;10.95;4.07;;;;;;;0.12;99.85;100827.94;5029827;28;20029;-67
2024/01/27 01:31:24;;;;;;;9.43;4.20;;;;;;;0.71;100.00;100953.88;5029793;28;20404;-71
2024/01/27 01:33:50;;;;;;;7.78;3.67;;;;;;;1.23;100.00;101053.97;5028396;28;20099;-68
2024/01/27 01:36:15;;;;;;;10.70;5.40;;;;;;;1.25;100.00;101055.00;5029976;28;20720;-75
2024/01/27 01:38:41;;;;;;;6.38;3.58;;;;;;;1.36;100.00;101049.16;5044883;28;20061;-70
2024/01/27 01:41:06;;;;;;;7.05;3.53;;;;;;;1.44;100.00;101040.50;5030133;28;20048;-72
2024/01/27 01:43:31;;;;;;;9.00;4.20;;;;;;;1.16;100.00;100990.66;5029656;28;20128;-72
2024/01/27 01:45:57;;;;;;;12.93;6.55;;;;;;;1.39;100.00;101054.50;5029825;28;20029;-69
2024/01/27 01:48:23;;;;;;;13.00;5.20;;;;;;;1.38;100.00;101041.66;5029860;28;20396;-70
2024/01/27 01:50:49;;;;;;;16.83;8.40;;;;;;;1.40;100.00;101048.63;5030076;28;20535;-69
2024/01/27 01:53:15;;;;;;;14.13;7.97;;;;;;;1.41;100.00;101037.72;5029789;28;20040;-70
2024/01/27 01:55:41;;;;;;;13.77;5.88;;;;;;;1.39;100.00;101034.13;5027222;28;20049;-70
2024/01/27 01:58:06;;;;;;;10.68;4.80;;;;;;;0.99;100.00;100956.22;5030002;28;20025;-69
2024/01/27 02:00:32;;;;;;;12.98;5.22;;;;;;;1.51;100.00;101033.38;5030621;28;20049;-69
2024/01/27 02:02:58;;;;;;;12.05;5.25;;;;;;;1.53;100.00;101040.34;5029447;28;20033;-70
2024/01/27 02:05:24;;;;;;;8.98;4.30;;;;;;;1.06;100.00;100978.81;5029226;28;20025;-72
2024/01/27 02:07:50;;;;;;;9.80;4.80;;;;;;;1.19;100.00;101018.91;5043693;28;20125;-68
2024/01/27 02:10:17;;;;;;;11.20;5.00;;;;;;;1.03;100.00;100979.44;5029317;28;20044;-68
2024/01/27 02:12:44;;;;;;;10.77;4.93;;;;;;;1.40;100.00;101028.28;5030056;28;20030;-73
2024/01/27 02:15:12;;;;;;;11.65;4.95;;;;;;;1.52;100.00;101030.06;5028872;28;20028;-70
2024/01/27 02:17:37;;;;;;;8.65;4.88;;;;;;;1.41;100.00;101024.09;5029649;28;20036;-71
2024/01/27 02:20:04;;;;;;;9.35;4.03;;;;;;;1.39;100.00;101023.97;5028602;28;20022;-75
2024/01/27 02:22:29;;;;;;;10.35;4.32;;;;;;;1.33;100.00;101027.66;5029525;28;20120;-73
2024/01/27 02:24:55;;;;;;;9.88;4.32;;;;;;;1.21;100.00;101023.34;5029126;28;20160;-69
2024/01/27 02:27:20;;;;;;;10.98;4.30;;;;;;;0.91;100.00;100991.13;5030522;28;20060;-68
2024/01/27 02:29:46;;;;;;;10.45;4.45;;;;;;;1.00;100.00;100999.56;5029257;28;20032;-69
2024/01/27 02:32:11;;;;;;;9.85;4.38;;;;;;;1.22;100.00;101016.59;5029236;28;20423;-71
2024/01/27 02:34:37;;;;;;;9.68;4.47;;;;;;;0.64;100.00;100927.06;5029908;28;20488;-73
2024/01/27 02:37:02;;;;;;;12.05;4.72;;;;;;;0.70;100.00;100959.72;5028787;28;20037;-67
2024/01/27 02:39:28;;;;;;;10.88;5.03;;;;;;;1.02;100.00;101010.72;5029294;28;20057;-70
2024/01/27 02:41:54;;;;;;;8.02;4.45;;;;;;;1.10;100.00;101008.84;5029156;28;20029;-69
2024/01/27 02:44:19;;;;;;;8.25;4.32;;;;;;;1.10;100.00;101013.94;5029041;28;20029;-71
2024/01/27 02:46:45;;;;;;;8.95;3.83;;;;;;;1.19;100.00;101018.91;5043774;28;20049;-73
2024/01/27 02:49:11;;;;;;;9.57;4.30;;;;;;;1.04;100.00;100998.16;5028783;28;20042;-70
2024/01/27 02:51:36;;;;;;;7.47;3.83;;;;;;;1.01;100.00;101008.97;5029811;28;20112;-69
2024/01/27 02:54:02;;;;;;;7.68;3.85;;;;;;;0.68;100.00;100953.63;5029160;28;20037;-69
2024/01/27 02:56:27;;;;;;;9.02;4.78;;;;;;;1.06;100.00;101044.94;5029044;28;20556;-70
2024/01/27 02:58:53;;;;;;;11.70;4.43;;;;;;;1.03;100.00;101049.75;5026210;28;20046;-67
2024/01/27 03:01:18;;;;;;;9.18;4.20;;;;;;;0.96;100.00;101056.88;5028912;28;20034;-69
2024/01/27 03:03:44;;;;;;;8.73;4.20;;;;;;;0.27;100.00;100934.13;5028649;28;20429;-70
2024/01/27 03:06:09;;;;;;;9.85;4.50;;;;;;;0.94;100.00;101043.13;5029597;28;20488;-72
2024/01/27 03:08:35;;;;;;;8.85;3.83;;;;;;;0.95;100.00;101038.97;5028916;28;20115;-69
2024/01/27 03:11:00;;;;;;;7.90;3.88;;;;;;;1.02;100.00;101030.19;5031126;28;20037;-75
2024/01/27 03:13:26;;;;;;;10.55;4.53;;;;;;;1.07;100.00;101026.38;5029001;28;20036;-70
2024/01/27 03:15:52;;;;;;;8.35;4.43;;;;;;;0.90;100.00;100991.94;5028464;28;20033;-71
2024/01/27 03:18:18;;;;;;;9.63;4.60;;;;;;;0.93;100.00;100993.03;5028366;28;20411;-69
2024/01/27 03:20:43;;;;;;;7.13;4.20;;;;;;;1.08;100.00;101020.53;5029856;28;20061;-68
2024/01/27 03:23:10;;;;;;;7.55;4.00;;;;;;;1.10;100.00;101027.53;5032379;28;20076;-71
2024/01/27 03:25:35;;;;;;;9.25;4.28;;;;;;;1.05;100.00;101018.63;5031161;28;20138;-68
2024/01/27 03:28:01;;;;;;;9.68;4.05;;;;;;;0.64;100.00;100944.88;5031912;28;20512;-70
2024/01/27 03:30:28;;;;;;;7.65;3.72;;;;;;;1.18;100.00;101034.91;5032128;28;20033;-73
2024/01/27 03:32:54;;;;;;;9.77;4.18;;;;;;;1.12;100.00;101002.22;5031867;28;20025;-69
2024/01/27 03:35:19;;;;;;;10.40;4.00;;;;;;;1.13;100.00;101016.72;5032615;28;20025;-70
2024/01/27 03:37:45;;;;;;;8.38;4.00;;;;;;;0.74;100.00;100933.81;5032457;28;20025;-69
2024/01/27 03:40:11;;;;;;;9.63;5.32;;;;;;;0.79;100.00;100930.88;5032795;28;20041;-70
2024/01/27 03:42:36;;;;;;;8.43;4.50;;;;;;;1.29;100.00;101007.03;5032381;28;20022;-68
2024/01/27 03:45:03;;;;;;;11.93;4.53;;;;;;;1.24;100.00;100999.81;5032172;28;20056;-69
2024/01/27 03:47:28;;;;;;;11.18;4.65;;;;;;;1.24;100.00;100997.28;5031796;28;20053;-68
2024/01/27 03:49:54;;;;;;;10.52;4.40;;;;;;;0.86;100.00;100978.06;5032389;28;20115;-72
2024/01/27 03:52:19;;;;;;;21.88;14.40;;;;;;;0.70;100.00;100949.56;5031443;28;20493;-74
2024/01/27 03:54:45;;;;;;;25.90;16.25;;;;;;;0.92;100.00;100992.91;5032927;28;20474;-70
2024/01/27 03:57:11;;;;;;;21.65;12.35;;;;;;;0.73;100.00;100957.44;5031730;28;20034;-72
2024/01/27 03:59:36;;;;;;;12.65;8.98;;;;;;;0.88;100.00;100986.69;5031745;28;20055;-69
2024/01/27 04:02:02;;;;;;;27.40;16.92;;;;;;;0.62;100.00;100990.47;5031253;28;20040;-69
2024/01/27 04:04:27;;;;;;;12.40;9.23;;;;;;;0.63;100.00;100982.06;5031731;28;20061;-69
2024/01/27 04:06:53;;;;;;;12.00;6.25;;;;;;;0.69;100.00;100988.47;5031871;28;20028;-70
2024/01/27 04:09:18;;;;;;;8.35;4.88;;;;;;;0.52;100.00;100959.06;5032085;28;20044;-69
2024/01/27 04:11:44;;;;;;;12.60;5.10;;;;;;;0.48;100.00;100980.78;5031617;28;20041;-70
2024/01/27 04:14:09;;;;;;;12.30;4.40;;;;;;;0.46;100.00;100983.19;5031080;28;20468;-74
2024/01/27 04:16:35;;;;;;;8.83;4.90;;;;;;;0.53;100.00;100996.44;5031794;28;20060;-70
2024/01/27 04:19:00;;;;;;;9.77;4.67;;;;;;;0.09;100.00;100916.56;5031170;28;20086;-73
2024/01/27 04:21:26;;;;;;;10.33;4.37;;;;;;;0.60;100.00;100986.03;5031734;28;20033;-70
2024/01/27 04:23:52;;;;;;;8.47;4.50;;;;;;;0.68;100.00;100987.56;5031443;28;20071;-70
2024/01/27 04:26:17;;;;;;;9.23;4.18;;;;;;;0.40;100.00;100957.28;5031930;28;20037;-69
2024/01/27 04:28:42;;;;;;;10.57;4.40;;;;;;;0.59;100.00;100999.50;5031573;28;20079;-70
2024/01/27 04:31:08;;;;;;;17.27;8.33;;;;;;;0.53;100.00;100963.41;5030682;28;20407;-75
2024/01/27 04:33:34;;;;;;;11.47;6.83;;;;;;;0.66;100.00;100999.25;5031015;28;20104;-72
2024/01/27 04:36:00;;;;;;;17.23;7.57;;;;;;;0.56;100.00;100989.03;5030679;28;20025;-71
2024/01/27 04:38:25;;;;;;;23.47;15.30;;;;;;;0.48;100.00;100999.44;5030639;28;20050;-70
2024/01/27 04:40:52;;;;;;;22.17;15.30;;;;;;;0.45;100.00;100993.22;5031275;28;20048;-71
2024/01/27 04:43:20;;;;;;;20.50;13.87;;;;;;;0.37;100.00;100990.00;5031111;28;20439;-71
2024/01/27 04:45:47;;;;;;;20.40;10.60;;;;;;;0.20;100.00;100969.88;5030807;28;20087;-69
2024/01/27 04:48:14;;;;;;;12.75;6.68;;;;;;;0.21;100.00;100971.69;5031808;28;20123;-70
2024/01/27 04:50:39;;;;;;;12.60;7.00;;;;;;;-0.04;100.00;100918.78;5032201;28;20407;-71
2024/01/27 04:53:05;;;;;;;14.50;7.33;;;;;;;0.37;100.00;100982.38;5032357;28;20030;-70
2024/01/27 04:55:31;;;;;;;16.83;12.03;;;;;;;0.48;100.00;100985.84;5031980;28;20108;-70
2024/01/27 04:57:58;;;;;;;17.03;13.57;;;;;;;0.54;100.00;100977.88;5031120;28;20037;-70
2024/01/27 05:00:26;;;;;;;17.70;9.40;;;;;;;0.45;100.00;100947.50;5045844;28;20079;-73
2024/01/27 05:02:52;;;;;;;11.70;7.30;;;;;;;0.66;100.00;100957.69;5030776;28;20037;-70
2024/01/27 05:05:18;;;;;;;13.13;8.53;;;;;;;0.70;100.00;100954.63;5030140;28;20034;-71
2024/01/27 05:07:44;;;;;;;14.40;9.53;;;;;;;0.64;100.00;100925.41;5029130;28;20117;-70
2024/01/27 05:10:12;;;;;;;12.97;5.97;;;;;;;0.27;100.00;100856.28;5030972;28;20120;-68
2024/01/27 05:12:38;;;;;;;13.17;6.13;;;;;;;0.26;100.00;100856.16;5031520;28;20399;-69
2024/01/27 05:15:04;;;;;;;12.77;6.43;;;;;;;0.64;100.00;100933.03;5031116;28;20034;-70
2024/01/27 05:17:30;;;;;;;15.77;7.03;;;;;;;0.70;100.00;100940.31;5031048;28;20049;-71
2024/01/27 05:19:55;;;;;;;22.07;12.37;;;;;;;0.31;100.00;100865.94;5030967;28;20029;-68
2024/01/27 05:22:21;;;;;;;16.40;9.27;;;;;;;0.68;100.00;100941.81;5029684;28;20160;-70
2024/01/27 05:24:47;;;;;;;9.93;5.70;;;;;;;0.18;100.00;100858.03;5031332;28;20028;-69
2024/01/27 05:27:12;;;;;;;13.33;6.53;;;;;;;0.66;100.00;100942.44;5030398;28;20112;-70
2024/01/27 05:29:38;;;;;;;11.73;6.20;;;;;;;0.60;100.00;100936.09;5030560;28;20057;-69
2024/01/27 05:32:03;;;;;;;13.33;6.40;;;;;;;0.51;100.00;100937.84;5030632;28;20480;-70
2024/01/27 05:34:29;;;;;;;14.07;6.07;;;;;;;0.52;100.00;100959.06;5030641;28;20033;-69
2024/01/27 05:36:55;;;;;;;12.67;6.10;;;;;;;0.42;100.00;100962.47;5030394;28;20040;-70
2024/01/27 05:39:21;;;;;;;11.90;5.93;;;;;;;0.34;100.00;100959.28;5030486;28;20061;-68
2024/01/27 05:41:46;;;;;;;141.83;49.13;;;;;;;0.18;100.00;100931.69;5030459;28;20047;-69
2024/01/27 05:44:12;;;;;;;60.90;23.17;;;;;;;0.32;100.00;100949.00;5030097;28;20037;-69
2024/01/27 05:46:37;;;;;;;34.47;18.97;;;;;;;0.37;100.00;100951.91;5030122;28;20042;-71
2024/01/27 05:49:03;;;;;;;21.13;12.37;;;;;;;0.43;100.00;100946.47;5030470;28;20539;-68
2024/01/27 05:51:33;;;;;;;17.47;9.47;;;;;;;0.49;100.00;100947.00;5031129;28;20365;-69
2024/01/27 05:53:59;;;;;;;18.37;10.70;;;;;;;0.52;100.00;100949.78;5029982;28;20041;-70
2024/01/27 05:56:24;;;;;;;13.70;8.03;;;;;;;0.55;100.00;100955.16;5028657;28;20590;-69
2024/01/27 05:58:50;;;;;;;15.80;9.60;;;;;;;0.51;100.00;100948.00;5044004;28;20045;-70
2024/01/27 06:01:17;;;;;;;19.67;12.17;;;;;;;0.46;100.00;100936.56;5030149;28;20060;-70
2024/01/27 06:03:43;;;;;;;24.30;11.40;;;;;;;0.53;100.00;100955.78;5029952;28;20044;-69
2024/01/27 06:06:09;;;;;;;39.70;19.03;;;;;;;-0.11;100.00;100846.31;5029779;28;20411;-68
2024/01/27 06:08:35;;;;;;;30.80;15.80;;;;;;;0.54;100.00;100965.19;5029894;28;20091;-69
2024/01/27 06:11:00;;;;;;;18.03;8.03;;;;;;;0.45;100.00;100945.84;5028528;28;20084;-69
2024/01/27 06:13:26;;;;;;;15.32;7.10;;;;;;;0.54;100.00;100958.44;5030234;28;20112;-70
2024/01/27 06:15:52;;;;;;;16.17;7.57;;;;;;;0.43;100.00;100938.84;5030205;28;20041;-69
2024/01/27 06:18:17;;;;;;;13.43;8.70;;;;;;;0.55;100.00;100944.97;5029908;28;20033;-75
2024/01/27 06:20:43;;;;;;;12.73;7.50;;;;;;;0.59;100.00;100956.28;5029685;28;20415;-68
2024/01/27 06:23:09;;;;;;;14.33;7.07;;;;;;;0.45;100.00;100937.34;5029834;28;20033;-69
2024/01/27 06:25:34;;;;;;;13.30;7.53;;;;;;;0.64;100.00;100973.69;5029413;28;20582;-69
2024/01/27 06:28:00;;;;;;;14.50;7.57;;;;;;;0.64;100.00;100975.34;5029986;28;20040;-70
2024/01/27 06:30:26;;;;;;;14.67;8.03;;;;;;;0.61;100.00;100980.16;5029793;28;20060;-68
2024/01/27 06:32:51;;;;;;;16.03;9.10;;;;;;;0.62;100.00;100989.56;5029583;28;20064;-70
2024/01/27 06:35:17;;;;;;;17.13;9.03;;;;;;;0.63;100.00;100993.91;5029975;28;20072;-70
2024/01/27 06:37:43;;;;;;;15.00;8.07;;;;;;;0.67;100.00;100995.06;5029441;28;20083;-70
2024/01/27 06:40:09;;;;;;;21.67;9.67;;;;;;;0.76;100.00;101000.91;5029234;28;20076;-69
2024/01/27 06:42:35;;;;;;;20.00;10.23;;;;;;;0.83;100.00;100997.25;5028165;28;20025;-69
2024/01/27 06:45:01;;;;;;;18.80;11.18;;;;;;;0.54;100.00;100933.03;5029641;28;20542;-69
2024/01/27 06:47:26;;;;;;;18.17;11.27;;;;;;;0.88;100.00;100988.34;5044510;28;20540;-69
2024/01/27 06:49:53;;;;;;;17.37;10.57;;;;;;;0.54;100.00;100916.91;5029029;28;20041;-69
2024/01/27 06:52:19;;;;;;;19.13;10.60;;;;;;;0.97;100.00;100978.94;5043303;28;20424;-69
2024/01/27 06:54:44;;;;;;;18.47;10.97;;;;;;;0.98;100.00;100968.00;5031570;28;20033;-68
2024/01/27 06:57:20;;;;;;;20.48;12.13;;;;;;;0.66;100.00;100907.78;5033319;28;20040;-70
2024/01/27 06:59:52;;;;;;;23.80;12.73;;;;;;;0.84;100.00;100940.56;5033685;28;20025;-70
2024/01/27 07:02:28;;;;;;;23.60;13.87;;;;;;;1.02;100.00;100977.66;5033712;28;20033;-70
2024/01/27 07:04:56;;;;;;;25.10;12.98;;;;;;;1.04;100.00;100970.19;5032029;28;20039;-70
2024/01/27 07:07:26;;;;;;;21.17;12.70;;;;;;;1.09;100.00;100969.78;5032496;28;20025;-69
2024/01/27 07:09:55;;;;;;;17.70;11.55;;;;;;;1.12;100.00;100970.06;5032962;28;20037;-75
2024/01/27 07:12:21;;;;;;;17.80;11.43;;;;;;;1.17;100.00;100962.78;5033197;28;20033;-74
2024/01/27 07:14:47;;;;;;;18.20;10.25;;;;;;;1.22;100.00;100947.91;5033329;28;20029;-69
2024/01/27 07:17:13;;;;;;;22.83;11.80;;;;;;;0.93;100.00;100883.72;5033250;28;20680;-72
2024/01/27 07:19:38;;;;;;;16.77;10.05;;;;;;;1.36;100.00;100946.50;5033006;28;20092;-69
2024/01/27 07:22:04;;;;;;;22.90;12.00;;;;;;;1.06;100.00;100874.56;5033430;28;20128;-71
2024/01/27 07:24:30;;;;;;;27.27;13.82;;;;;;;1.43;100.00;100933.50;5033108;28;20030;-69
2024/01/27 07:26:55;;;;;;;21.48;11.45;;;;;;;1.58;100.00;100949.13;5034292;28;20072;-71
2024/01/27 07:29:21;;;;;;;21.38;9.88;;;;;;;1.67;100.00;100962.63;5032731;28;20106;-68
2024/01/27 07:31:47;;;;;;;17.30;9.45;;;;;;;1.70;100.00;100970.47;5032723;28;20029;-70
2024/01/27 07:34:13;;;;;;;18.60;10.38;;;;;;;1.78;100.00;100982.19;5033504;28;20053;-69
2024/01/27 07:36:38;;;;;;;20.35;10.63;;;;;;;1.49;100.00;100912.78;5032306;28;20064;-69
2024/01/27 07:39:04;;;;;;;18.08;10.80;;;;;;;1.86;100.00;100985.34;5032782;28;20056;-72
2024/01/27 07:41:31;;;;;;;18.25;10.52;;;;;;;1.37;100.00;100905.94;5032629;28;20037;-73
2024/01/27 07:43:56;;;;;;;16.02;10.88;;;;;;;1.63;100.00;100973.28;5032964;28;20033;-69
2024/01/27 07:46:22;;;;;;;18.75;11.50;;;;;;;1.16;100.00;100902.53;5032832;28;20044;-69
2024/01/27 07:48:51;;;;;;;20.40;11.50;;;;;;;1.40;100.00;100949.41;5032875;28;20072;-73
2024/01/27 07:51:17;;;;;;;15.88;10.23;;;;;;;1.55;100.00;100980.31;5032738;28;20491;-68
2024/01/27 07:53:43;;;;;;;17.10;10.30;;;;;;;1.51;100.00;100979.94;5032681;28;20045;-69
2024/01/27 07:56:08;;;;;;;20.27;12.15;;;;;;;1.47;100.00;100985.53;5032397;28;20047;-69
2024/01/27 07:58:34;;;;;;;17.60;10.02;;;;;;;1.38;100.00;100984.00;5033037;28;20029;-69
2024/01/27 08:01:00;;;;;;;16.98;10.07;;;;;;;1.39;100.00;100984.94;5032153;28;20040;-70
2024/01/27 08:03:26;;;;;;;19.92;10.90;;;;;;;1.40;100.00;100990.13;5032312;28;20041;-69
2024/01/27 08:05:52;;;;;;;18.42;10.35;;;;;;;1.41;100.00;100991.03;5045704;28;20042;-69
2024/01/27 08:08:17;;;;;;;26.23;16.63;;;;;;;1.40;100.00;100968.91;5023363;28;20095;-74
2024/01/27 08:10:44;;;;;;;23.27;13.48;;;;;;;1.44;100.00;100984.50;5032064;28;20025;-69
2024/01/27 08:13:09;;;;;;;23.40;12.15;;;;;;;1.47;100.00;100973.72;5032027;28;20401;-68
2024/01/27 08:15:35;;;;;;;18.48;11.32;;;;;;;1.48;100.00;101007.69;5032549;28;20063;-69
2024/01/27 08:18:00;;;;;;;20.40;11.90;;;;;;;1.42;100.00;100972.44;5031705;28;20072;-73
2024/01/27 08:20:25;;;;;;;37.88;21.65;;;;;;;1.54;100.00;100986.16;5031905;28;20030;-67
2024/01/27 08:22:52;;;;;;;31.50;18.60;;;;;;;1.48;100.00;100959.34;5031641;28;20404;-69
2024/01/27 08:25:18;;;;;;;22.70;12.68;;;;;;;1.11;100.00;100884.38;5032096;28;20029;-69
2024/01/27 08:27:44;;;;;;;30.50;17.02;;;;;;;1.60;100.00;100955.25;5032076;28;20452;-68
2024/01/27 08:30:10;;;;;;;20.42;13.65;;;;;;;1.28;100.00;100888.28;5032428;28;20029;-68
2024/01/27 08:32:36;;;;;;;16.80;11.02;;;;;;;1.70;100.00;100942.47;5031583;28;20526;-69
2024/01/27 08:35:01;;;;;;;19.60;11.90;;;;;;;1.66;100.00;100916.66;5032022;28;20052;-68
2024/01/27 08:37:27;;;;;;;12.40;7.82;;;;;;;1.71;100.00;100915.38;5031694;28;20095;-70
2024/01/27 08:39:53;;;;;;;19.40;10.68;;;;;;;1.79;100.00;100921.97;5031738;28;20174;-69
2024/01/27 08:42:18;;;;;;;10.20;5.43;;;;;;;1.82;100.00;100926.41;5031591;28;20406;-69
2024/01/27 08:44:44;;;;;;;7.70;4.57;;;;;;;1.74;100.00;100919.03;5031674;28;20025;-69
2024/01/27 08:47:10;;;;;;;9.60;4.85;;;;;;;1.85;100.00;100926.66;5031477;28;20025;-69
2024/01/27 08:49:35;;;;;;;12.50;6.90;;;;;;;1.93;100.00;100920.50;5031059;28;20029;-68
2024/01/27 08:52:01;;;;;;;12.95;5.13;;;;;;;2.03;100.00;100924.66;5048656;28;20930;-70
2024/01/27 08:54:26;;;;;;;12.30;5.13;;;;;;;1.97;100.00;100902.16;5049296;28;20044;-68
2024/01/27 08:56:53;;;;;;;11.02;6.05;;;;;;;2.08;100.00;100918.25;5048723;28;20056;-69
2024/01/27 08:59:18;;;;;;;11.13;6.70;;;;;;;2.13;100.00;100917.00;5048479;28;20040;-69
2024/01/27 09:01:44;;;;;;;70.93;42.88;;;;;;;2.08;100.00;100906.44;5048518;28;20029;-69
2024/01/27 09:04:09;;;;;;;178.10;141.57;;;;;;;2.19;100.00;100919.13;5048069;28;20499;-69
2024/01/27 09:06:36;;;;;;;24.50;16.75;;;;;;;2.24;100.00;100907.63;5049232;28;20036;-69
2024/01/27 09:09:02;;;;;;;10.88;6.55;;;;;;;2.34;100.00;100912.66;5048235;28;20485;-69
2024/01/27 09:11:30;;;;;;;18.92;9.93;;;;;;;1.92;100.00;100815.22;5048202;28;20475;-69
2024/01/27 09:13:56;;;;;;;15.10;8.48;;;;;;;2.57;100.00;100903.34;5048222;28;20131;-69
2024/01/27 09:16:21;;;;;;;15.15;8.43;;;;;;;2.30;100.00;100843.53;5049101;28;20037;-69
2024/01/27 09:18:49;;;;;;;13.63;6.97;;;;;;;2.69;100.00;100901.72;5047217;28;20052;-69
2024/01/27 09:21:20;;;;;;;12.02;6.65;;;;;;;2.80;100.00;100907.59;5031719;28;20053;-67
2024/01/27 09:23:46;;;;;;;13.93;6.95;;;;;;;2.81;100.00;100900.88;5048247;28;20045;-68
2024/01/27 09:26:12;;;;;;;12.93;7.00;;;;;;;2.82;100.00;100898.44;5048008;28;20037;-69
2024/01/27 09:28:43;;;;;;;9.57;5.95;;;;;;;2.83;100.00;100912.97;4992807;28;20380;-68
2024/01/27 09:31:10;;;;;;;12.57;7.85;;;;;;;2.89;100.00;100908.31;5031073;28;20032;-69
2024/01/27 09:33:36;;;;;;;12.88;7.80;;;;;;;2.89;100.00;100907.41;5030591;28;20048;-68
2024/01/27 09:36:01;;;;;;;12.07;6.15;;;;;;;2.92;100.00;100907.66;5030423;28;20029;-68
2024/01/27 09:38:28;;;;;;;19.02;9.63;;;;;;;2.42;100.00;100834.25;5030240;28;20045;-69
2024/01/27 09:40:55;;;;;;;15.50;7.90;;;;;;;2.96;100.00;100931.72;5029111;28;20491;-69
2024/01/27 09:43:21;;;;;;;12.43;6.70;;;;;;;2.89;100.00;100902.31;5030429;28;20067;-68
2024/01/27 09:45:47;;;;;;;15.80;9.25;;;;;;;2.48;100.00;100851.66;5022117;28;20025;-69
2024/01/27 09:48:13;;;;;;;17.13;11.05;;;;;;;2.81;100.00;100911.06;5030194;28;20502;-69
2024/01/27 09:50:42;;;;;;;15.13;9.18;;;;;;;2.90;100.00;100927.94;5028726;28;20499;-69
2024/01/27 09:53:09;;;;;;;13.02;7.70;;;;;;;2.91;100.00;100927.16;5030284;28;20503;-67
2024/01/27 09:55:35;;;;;;;11.50;5.72;;;;;;;2.92;100.00;100922.97;5021555;28;20079;-69
2024/01/27 09:58:01;;;;;;;7.97;4.63;;;;;;;2.89;100.00;100923.63;5030949;28;20561;-69
2024/01/27 10:00:27;;;;;;;10.95;5.72;;;;;;;2.97;100.00;100915.66;5030027;28;20518;-69
2024/01/27 10:02:54;;;;;;;10.68;6.18;;;;;;;2.93;100.00;100924.75;5030081;28;20160;-69
2024/01/27 10:05:21;;;;;;;19.98;11.25;;;;;;;3.02;100.00;100922.84;5030234;28;20030;-69
2024/01/27 10:07:46;;;;;;;14.65;9.20;;;;;;;3.05;100.00;100907.81;5025678;28;20404;-69
2024/01/27 10:10:12;;;;;;;14.23;8.85;;;;;;;3.08;100.00;100914.78;5029981;28;20113;-69
2024/01/27 10:12:42;;;;;;;13.02;7.55;;;;;;;3.13;100.00;100913.47;5030159;28;20033;-69
2024/01/27 10:15:19;;;;;;;12.38;7.80;;;;;;;3.18;100.00;100914.69;5029792;28;20033;-68
2024/01/27 10:17:44;;;;;;;14.70;8.52;;;;;;;3.18;100.00;100906.16;5029821;28;20144;-67
2024/01/27 10:20:15;;;;;;;15.15;8.02;;;;;;;3.18;100.00;100908.72;5029552;28;20115;-67
2024/01/27 10:22:42;;;;;;;13.40;8.15;;;;;;;3.25;100.00;100918.56;5029623;28;20029;-74
2024/01/27 10:25:09;;;;;;;13.93;8.65;;;;;;;3.27;100.00;100916.16;5029635;28;20040;-68
2024/01/27 10:27:35;;;;;;;13.13;8.10;;;;;;;3.31;100.00;100911.34;5029820;28;20029;-68
2024/01/27 10:30:01;;;;;;;15.32;8.40;;;;;;;3.38;100.00;100907.63;5029855;28;20607;-69
2024/01/27 10:32:26;;;;;;;14.98;7.97;;;;;;;3.42;100.00;100891.72;5029381;28;20412;-68
2024/01/27 10:35:07;;;;;;;12.68;7.20;;;;;;;3.41;100.00;100897.59;5029392;28;20060;-69
2024/01/27 10:37:34;;;;;;;10.60;5.72;;;;;;;3.27;100.00;100867.66;5029105;28;20171;-68
2024/01/27 10:40:04;;;;;;;11.32;6.20;;;;;;;3.36;100.00;100892.16;5029012;28;20050;-68
2024/01/27 10:42:30;;;;;;;9.68;6.20;;;;;;;3.02;100.00;100810.63;5029605;28;20160;-66
2024/01/27 10:45:02;;;;;;;9.38;6.38;;;;;;;2.89;100.00;100778.25;5030141;28;20481;-68
2024/01/27 10:47:31;;;;;;;10.40;5.32;;;;;;;3.58;100.00;100870.75;5029517;28;20034;-70
2024/01/27 10:49:58;;;;;;;11.93;5.63;;;;;;;3.60;100.00;100873.41;5029505;28;20049;-68
2024/01/27 10:52:28;;;;;;;7.60;4.60;;;;;;;3.67;100.00;100878.19;5029362;28;20059;-69
2024/01/27 10:55:00;;;;;;;;;;;;;;;3.71;100.00;100872.50;5030228;28;20868;-69
2024/01/27 10:57:26;;;;;;;9.95;5.75;;;;;;;3.67;100.00;100858.63;5027776;28;19960;-69
2024/01/27 10:59:53;;;;;;;8.68;4.45;;;;;;;3.79;100.00;100873.94;5029323;28;20091;-73
2024/01/27 11:02:20;;;;;;;7.82;4.63;;;;;;;3.83;100.00;100870.81;5029214;28;20044;-68
2024/01/27 11:04:48;;;;;;;13.15;6.22;;;;;;;3.93;100.00;100868.94;5029646;28;20033;-68
2024/01/27 11:07:13;;;;;;;14.05;7.32;;;;;;;4.00;100.00;100869.47;5029683;28;20083;-67
2024/01/27 11:09:39;;;;;;;12.75;6.15;;;;;;;4.02;100.00;100874.66;5030017;28;20116;-68
2024/01/27 11:12:08;;;;;;;11.45;5.93;;;;;;;4.01;100.00;100872.88;5027949;28;20064;-69
2024/01/27 11:14:34;;;;;;;12.50;5.82;;;;;;;3.82;100.00;100832.41;5029149;28;20030;-69